sensor_id;sensor_type;location;lat;lon;timestamp;temperature;humidity
8043;DHT22;4064;48.132;11.366;2022-10-10T00:01:59;9.70;99.90
8043;DHT22;4064;48.132;11.366;2022-10-10T00:04:25;9.80;99.90
8043;DHT22;4064;48.132;11.366;2022-10-10T00:06:51;9.80;99.90
8043;DHT22;4064;48.132;11.366;2022-10-10T00:09:16;9.80;99.90
8043;DHT22;4064;48.132;11.366;2022-10-10T00:11:42;9.80;99.90
8043;DHT22;4064;48.132;11.366;2022-10-10T00:14:08;9.90;99.90
8043;DHT22;4064;48.132;11.366;2022-10-10T00:16:33;9.90;99.90
8043;DHT22;4064;48.132;11.366;2022-10-10T00:18:59;9.90;99.90
8043;DHT22;4064;48.132;11.366;2022-10-10T00:21:25;10.00;99.90
8043;DHT22;4064;48.132;11.366;2022-10-10T00:23:51;10.00;99.90
8043;DHT22;4064;48.132;11.366;2022-10-10T00:26:17;10.00;99.90
8043;DHT22;4064;48.132;11.366;2022-10-10T00:28:42;10.00;99.90
8043;DHT22;4064;48.132;11.366;2022-10-10T00:31:08;10.10;99.90
8043;DHT22;4064;48.132;11.366;2022-10-10T00:33:35;10.10;99.90
8043;DHT22;4064;48.132;11.366;2022-10-10T00:36:00;10.10;99.90
8043;DHT22;4064;48.132;11.366;2022-10-10T00:38:26;10.10;99.90
8043;DHT22;4064;48.132;11.366;2022-10-10T00:40:54;10.10;99.90
8043;DHT22;4064;48.132;11.366;2022-10-10T00:43:23;10.10;99.90
8043;DHT22;4064;48.132;11.366;2022-10-10T00:45:49;10.20;99.90
8043;DHT22;4064;48.132;11.366;2022-10-10T00:48:24;10.20;99.90
8043;DHT22;4064;48.132;11.366;2022-10-10T00:53:22;10.20;99.90
8043;DHT22;4064;48.132;11.366;2022-10-10T00:55:50;10.20;99.90
8043;DHT22;4064;48.132;11.366;2022-10-10T00:58:18;10.20;99.90
8043;DHT22;4064;48.132;11.366;2022-10-10T01:00:44;10.20;99.90
8043;DHT22;4064;48.132;11.366;2022-10-10T01:03:10;10.20;99.90
8043;DHT22;4064;48.132;11.366;2022-10-10T01:05:36;10.20;99.90
8043;DHT22;4064;48.132;11.366;2022-10-10T01:08:05;10.20;99.90
8043;DHT22;4064;48.132;11.366;2022-10-10T01:10:37;10.20;99.90
8043;DHT22;4064;48.132;11.366;2022-10-10T01:13:33;10.30;99.90
8043;DHT22;4064;48.132;11.366;2022-10-10T01:16:38;10.30;99.90
8043;DHT22;4064;48.132;11.366;2022-10-10T01:19:35;10.30;99.90
8043;DHT22;4064;48.132;11.366;2022-10-10T01:22:20;10.40;99.90
8043;DHT22;4064;48.132;11.366;2022-10-10T01:27:32;10.40;99.90
8043;DHT22;4064;48.132;11.366;2022-10-10T01:30:10;10.40;99.90
8043;DHT22;4064;48.132;11.366;2022-10-10T01:43:14;10.50;99.90
8043;DHT22;4064;48.132;11.366;2022-10-10T01:45:47;10.50;99.90
8043;DHT22;4064;48.132;11.366;2022-10-10T01:48:14;10.50;99.90
8043;DHT22;4064;48.132;11.366;2022-10-10T01:53:46;10.50;99.90
8043;DHT22;4064;48.132;11.366;2022-10-10T02:01:52;10.60;99.90
8043;DHT22;4064;48.132;11.366;2022-10-10T02:04:46;10.60;99.90
8043;DHT22;4064;48.132;11.366;2022-10-10T02:07:32;10.60;99.90
8043;DHT22;4064;48.132;11.366;2022-10-10T02:10:02;10.60;99.90
8043;DHT22;4064;48.132;11.366;2022-10-10T02:12:30;10.60;99.90
8043;DHT22;4064;48.132;11.366;2022-10-10T02:15:06;10.60;99.90
8043;DHT22;4064;48.132;11.366;2022-10-10T02:17:34;10.60;99.90
8043;DHT22;4064;48.132;11.366;2022-10-10T02:20:02;10.60;99.90
8043;DHT22;4064;48.132;11.366;2022-10-10T02:22:30;10.60;99.90
8043;DHT22;4064;48.132;11.366;2022-10-10T02:24:57;10.60;99.90
8043;DHT22;4064;48.132;11.366;2022-10-10T02:27:52;10.60;99.90
8043;DHT22;4064;48.132;11.366;2022-10-10T02:30:14;10.60;99.90
8043;DHT22;4064;48.132;11.366;2022-10-10T02:32:49;10.60;99.90
8043;DHT22;4064;48.132;11.366;2022-10-10T02:35:23;10.60;99.90
8043;DHT22;4064;48.132;11.366;2022-10-10T02:37:51;10.60;99.90
8043;DHT22;4064;48.132;11.366;2022-10-10T02:40:22;10.50;99.90
8043;DHT22;4064;48.132;11.366;2022-10-10T02:42:49;10.50;99.90
8043;DHT22;4064;48.132;11.366;2022-10-10T02:45:18;10.50;99.90
8043;DHT22;4064;48.132;11.366;2022-10-10T02:47:45;10.50;99.90
8043;DHT22;4064;48.132;11.366;2022-10-10T02:50:11;10.50;99.90
8043;DHT22;4064;48.132;11.366;2022-10-10T02:52:37;10.50;99.90
8043;DHT22;4064;48.132;11.366;2022-10-10T02:55:03;10.50;99.90
8043;DHT22;4064;48.132;11.366;2022-10-10T02:57:28;10.50;99.90
8043;DHT22;4064;48.132;11.366;2022-10-10T02:59:54;10.50;99.90
8043;DHT22;4064;48.132;11.366;2022-10-10T03:02:20;10.50;99.90
8043;DHT22;4064;48.132;11.366;2022-10-10T03:04:46;10.50;99.90
8043;DHT22;4064;48.132;11.366;2022-10-10T03:07:11;10.50;99.90
8043;DHT22;4064;48.132;11.366;2022-10-10T03:09:37;10.50;99.90
8043;DHT22;4064;48.132;11.366;2022-10-10T03:12:03;10.50;99.90
8043;DHT22;4064;48.132;11.366;2022-10-10T03:14:29;10.50;99.90
8043;DHT22;4064;48.132;11.366;2022-10-10T03:16:55;10.50;99.90
8043;DHT22;4064;48.132;11.366;2022-10-10T03:19:20;10.50;99.90
8043;DHT22;4064;48.132;11.366;2022-10-10T03:21:46;10.50;99.90
8043;DHT22;4064;48.132;11.366;2022-10-10T03:24:11;10.50;99.90
8043;DHT22;4064;48.132;11.366;2022-10-10T03:26:37;10.40;99.90
8043;DHT22;4064;48.132;11.366;2022-10-10T03:29:03;10.40;99.90
8043;DHT22;4064;48.132;11.366;2022-10-10T03:31:30;10.40;99.90
8043;DHT22;4064;48.132;11.366;2022-10-10T03:33:55;10.40;99.90
8043;DHT22;4064;48.132;11.366;2022-10-10T03:36:21;10.30;99.90
8043;DHT22;4064;48.132;11.366;2022-10-10T03:38:47;10.30;99.90
8043;DHT22;4064;48.132;11.366;2022-10-10T03:41:13;10.20;99.90
8043;DHT22;4064;48.132;11.366;2022-10-10T03:43:39;10.20;99.90
8043;DHT22;4064;48.132;11.366;2022-10-10T03:46:05;10.10;99.90
8043;DHT22;4064;48.132;11.366;2022-10-10T03:48:31;10.00;99.90
8043;DHT22;4064;48.132;11.366;2022-10-10T03:50:56;10.00;99.90
8043;DHT22;4064;48.132;11.366;2022-10-10T03:53:22;10.00;99.90
8043;DHT22;4064;48.132;11.366;2022-10-10T03:55:48;9.90;99.90
8043;DHT22;4064;48.132;11.366;2022-10-10T03:58:13;9.90;99.90
8043;DHT22;4064;48.132;11.366;2022-10-10T04:00:39;9.90;99.90
8043;DHT22;4064;48.132;11.366;2022-10-10T04:03:05;9.80;99.90
8043;DHT22;4064;48.132;11.366;2022-10-10T04:05:36;9.70;99.90
8043;DHT22;4064;48.132;11.366;2022-10-10T04:08:03;9.70;99.90
8043;DHT22;4064;48.132;11.366;2022-10-10T04:10:29;9.70;99.90
8043;DHT22;4064;48.132;11.366;2022-10-10T04:12:55;9.70;99.90
8043;DHT22;4064;48.132;11.366;2022-10-10T04:15:22;9.60;99.90
8043;DHT22;4064;48.132;11.366;2022-10-10T04:17:47;9.50;99.90
8043;DHT22;4064;48.132;11.366;2022-10-10T04:20:13;9.50;99.90
8043;DHT22;4064;48.132;11.366;2022-10-10T04:22:39;9.50;99.90
8043;DHT22;4064;48.132;11.366;2022-10-10T04:25:05;9.50;99.90
8043;DHT22;4064;48.132;11.366;2022-10-10T04:27:31;9.40;99.90
8043;DHT22;4064;48.132;11.366;2022-10-10T04:29:56;9.50;99.90
8043;DHT22;4064;48.132;11.366;2022-10-10T04:32:22;9.40;99.90
8043;DHT22;4064;48.132;11.366;2022-10-10T04:34:48;9.30;99.90
8043;DHT22;4064;48.132;11.366;2022-10-10T04:37:14;9.20;99.90
8043;DHT22;4064;48.132;11.366;2022-10-10T04:39:39;9.20;99.90
8043;DHT22;4064;48.132;11.366;2022-10-10T04:42:05;9.20;99.90
8043;DHT22;4064;48.132;11.366;2022-10-10T04:44:31;9.20;99.90
8043;DHT22;4064;48.132;11.366;2022-10-10T04:46:56;9.20;99.90
8043;DHT22;4064;48.132;11.366;2022-10-10T04:49:22;9.20;99.90
8043;DHT22;4064;48.132;11.366;2022-10-10T04:51:51;9.20;99.90
8043;DHT22;4064;48.132;11.366;2022-10-10T04:54:16;9.20;99.90
8043;DHT22;4064;48.132;11.366;2022-10-10T04:56:42;9.20;99.90
8043;DHT22;4064;48.132;11.366;2022-10-10T04:59:08;9.20;99.90
8043;DHT22;4064;48.132;11.366;2022-10-10T05:01:34;9.20;99.90
8043;DHT22;4064;48.132;11.366;2022-10-10T05:04:00;9.20;99.90
8043;DHT22;4064;48.132;11.366;2022-10-10T05:06:26;9.20;99.90
8043;DHT22;4064;48.132;11.366;2022-10-10T05:08:52;9.10;99.90
8043;DHT22;4064;48.132;11.366;2022-10-10T05:11:17;9.10;99.90
8043;DHT22;4064;48.132;11.366;2022-10-10T05:13:43;9.10;99.90
8043;DHT22;4064;48.132;11.366;2022-10-10T05:16:09;9.00;99.90
8043;DHT22;4064;48.132;11.366;2022-10-10T05:18:37;9.00;99.90
8043;DHT22;4064;48.132;11.366;2022-10-10T05:21:03;9.00;99.90
8043;DHT22;4064;48.132;11.366;2022-10-10T05:23:31;9.00;99.90
8043;DHT22;4064;48.132;11.366;2022-10-10T05:25:57;8.90;99.90
8043;DHT22;4064;48.132;11.366;2022-10-10T05:28:23;8.90;99.90
8043;DHT22;4064;48.132;11.366;2022-10-10T05:30:52;8.90;99.90
8043;DHT22;4064;48.132;11.366;2022-10-10T05:33:18;8.90;99.90
8043;DHT22;4064;48.132;11.366;2022-10-10T05:35:44;8.90;99.90
8043;DHT22;4064;48.132;11.366;2022-10-10T05:38:09;8.90;99.90
8043;DHT22;4064;48.132;11.366;2022-10-10T05:40:38;8.80;99.90
8043;DHT22;4064;48.132;11.366;2022-10-10T05:43:04;8.80;99.90
8043;DHT22;4064;48.132;11.366;2022-10-10T05:45:30;8.80;99.90
8043;DHT22;4064;48.132;11.366;2022-10-10T05:48:02;8.80;99.90
8043;DHT22;4064;48.132;11.366;2022-10-10T05:50:40;8.80;99.90
8043;DHT22;4064;48.132;11.366;2022-10-10T05:53:10;8.80;99.90
8043;DHT22;4064;48.132;11.366;2022-10-10T05:55:35;8.80;99.90
8043;DHT22;4064;48.132;11.366;2022-10-10T05:58:01;8.90;99.90
8043;DHT22;4064;48.132;11.366;2022-10-10T06:00:27;8.90;99.90
8043;DHT22;4064;48.132;11.366;2022-10-10T06:02:53;8.90;99.90
8043;DHT22;4064;48.132;11.366;2022-10-10T06:05:18;8.90;99.90
8043;DHT22;4064;48.132;11.366;2022-10-10T06:07:44;9.00;99.90
8043;DHT22;4064;48.132;11.366;2022-10-10T06:10:10;9.00;99.90
8043;DHT22;4064;48.132;11.366;2022-10-10T06:12:36;9.10;99.90
8043;DHT22;4064;48.132;11.366;2022-10-10T06:15:05;9.10;99.90
8043;DHT22;4064;48.132;11.366;2022-10-10T06:17:31;9.10;99.90
8043;DHT22;4064;48.132;11.366;2022-10-10T06:19:56;9.20;99.90
8043;DHT22;4064;48.132;11.366;2022-10-10T06:22:22;9.20;99.90
8043;DHT22;4064;48.132;11.366;2022-10-10T06:24:48;9.30;99.90
8043;DHT22;4064;48.132;11.366;2022-10-10T06:27:13;9.40;99.90
8043;DHT22;4064;48.132;11.366;2022-10-10T06:29:39;9.50;99.90
8043;DHT22;4064;48.132;11.366;2022-10-10T06:32:05;9.50;99.90
8043;DHT22;4064;48.132;11.366;2022-10-10T06:34:30;9.50;99.90
8043;DHT22;4064;48.132;11.366;2022-10-10T06:36:56;9.50;99.90
8043;DHT22;4064;48.132;11.366;2022-10-10T06:39:22;9.60;99.90
8043;DHT22;4064;48.132;11.366;2022-10-10T06:41:48;9.70;99.90
8043;DHT22;4064;48.132;11.366;2022-10-10T06:44:16;9.70;99.90
8043;DHT22;4064;48.132;11.366;2022-10-10T06:46:41;9.80;99.90
8043;DHT22;4064;48.132;11.366;2022-10-10T06:49:07;9.80;99.90
8043;DHT22;4064;48.132;11.366;2022-10-10T06:51:33;9.90;99.90
8043;DHT22;4064;48.132;11.366;2022-10-10T06:53:59;10.00;99.90
8043;DHT22;4064;48.132;11.366;2022-10-10T06:56:25;10.00;99.90
8043;DHT22;4064;48.132;11.366;2022-10-10T06:58:50;10.00;99.90
8043;DHT22;4064;48.132;11.366;2022-10-10T07:01:20;10.00;99.90
8043;DHT22;4064;48.132;11.366;2022-10-10T07:03:46;10.10;99.90
8043;DHT22;4064;48.132;11.366;2022-10-10T07:06:13;10.10;99.90
8043;DHT22;4064;48.132;11.366;2022-10-10T07:08:39;10.20;99.90
8043;DHT22;4064;48.132;11.366;2022-10-10T07:11:06;10.30;99.90
8043;DHT22;4064;48.132;11.366;2022-10-10T07:13:33;10.40;99.90
8043;DHT22;4064;48.132;11.366;2022-10-10T07:16:00;10.40;99.90
8043;DHT22;4064;48.132;11.366;2022-10-10T07:18:26;10.50;99.90
8043;DHT22;4064;48.132;11.366;2022-10-10T07:20:59;10.60;99.90
8043;DHT22;4064;48.132;11.366;2022-10-10T07:23:26;10.70;99.90
8043;DHT22;4064;48.132;11.366;2022-10-10T07:26:02;10.80;99.90
8043;DHT22;4064;48.132;11.366;2022-10-10T07:28:28;10.90;99.90
8043;DHT22;4064;48.132;11.366;2022-10-10T07:31:05;11.00;99.90
8043;DHT22;4064;48.132;11.366;2022-10-10T07:33:38;11.10;99.90
8043;DHT22;4064;48.132;11.366;2022-10-10T07:36:05;11.10;99.90
8043;DHT22;4064;48.132;11.366;2022-10-10T07:38:32;11.30;99.90
8043;DHT22;4064;48.132;11.366;2022-10-10T07:40:58;11.40;99.90
8043;DHT22;4064;48.132;11.366;2022-10-10T07:43:23;11.50;99.90
8043;DHT22;4064;48.132;11.366;2022-10-10T07:45:49;11.50;99.90
8043;DHT22;4064;48.132;11.366;2022-10-10T07:48:15;11.60;99.90
8043;DHT22;4064;48.132;11.366;2022-10-10T07:50:42;11.80;99.90
8043;DHT22;4064;48.132;11.366;2022-10-10T07:53:10;11.90;99.90
8043;DHT22;4064;48.132;11.366;2022-10-10T07:55:40;12.10;99.90
8043;DHT22;4064;48.132;11.366;2022-10-10T07:58:06;12.20;99.90
8043;DHT22;4064;48.132;11.366;2022-10-10T08:00:32;12.40;99.90
8043;DHT22;4064;48.132;11.366;2022-10-10T08:03:00;12.50;99.90
8043;DHT22;4064;48.132;11.366;2022-10-10T08:05:26;12.60;99.90
8043;DHT22;4064;48.132;11.366;2022-10-10T08:07:51;12.80;99.90
8043;DHT22;4064;48.132;11.366;2022-10-10T08:10:17;12.90;99.90
8043;DHT22;4064;48.132;11.366;2022-10-10T08:12:43;13.10;99.90
8043;DHT22;4064;48.132;11.366;2022-10-10T08:15:09;13.30;99.90
8043;DHT22;4064;48.132;11.366;2022-10-10T08:17:35;13.40;99.90
8043;DHT22;4064;48.132;11.366;2022-10-10T08:20:01;13.40;99.90
8043;DHT22;4064;48.132;11.366;2022-10-10T08:22:27;13.60;99.90
8043;DHT22;4064;48.132;11.366;2022-10-10T08:24:52;13.70;99.90
8043;DHT22;4064;48.132;11.366;2022-10-10T08:27:18;13.90;99.90
8043;DHT22;4064;48.132;11.366;2022-10-10T08:29:45;14.00;99.90
8043;DHT22;4064;48.132;11.366;2022-10-10T08:32:11;14.10;99.90
8043;DHT22;4064;48.132;11.366;2022-10-10T08:34:37;14.20;99.90
8043;DHT22;4064;48.132;11.366;2022-10-10T08:37:03;14.30;99.90
8043;DHT22;4064;48.132;11.366;2022-10-10T08:39:28;14.40;99.90
8043;DHT22;4064;48.132;11.366;2022-10-10T08:41:57;14.50;99.90
8043;DHT22;4064;48.132;11.366;2022-10-10T08:44:31;14.60;99.90
8043;DHT22;4064;48.132;11.366;2022-10-10T08:54:38;15.20;99.90
8043;DHT22;4064;48.132;11.366;2022-10-10T08:57:21;15.30;99.90
8043;DHT22;4064;48.132;11.366;2022-10-10T08:59:49;15.50;99.90
8043;DHT22;4064;48.132;11.366;2022-10-10T09:02:24;15.60;99.90
8043;DHT22;4064;48.132;11.366;2022-10-10T09:04:51;15.80;99.90
8043;DHT22;4064;48.132;11.366;2022-10-10T09:13:07;16.20;99.90
8043;DHT22;4064;48.132;11.366;2022-10-10T09:15:39;16.30;99.90
8043;DHT22;4064;48.132;11.366;2022-10-10T09:26:23;16.70;99.90
8043;DHT22;4064;48.132;11.366;2022-10-10T09:28:58;16.80;99.90
8043;DHT22;4064;48.132;11.366;2022-10-10T09:31:40;16.90;99.90
8043;DHT22;4064;48.132;11.366;2022-10-10T09:34:22;16.90;99.90
8043;DHT22;4064;48.132;11.366;2022-10-10T09:36:53;17.10;99.90
8043;DHT22;4064;48.132;11.366;2022-10-10T09:42:14;17.40;99.90
8043;DHT22;4064;48.132;11.366;2022-10-10T09:44:42;17.50;99.90
8043;DHT22;4064;48.132;11.366;2022-10-10T09:47:13;17.70;99.90
8043;DHT22;4064;48.132;11.366;2022-10-10T09:49:39;17.70;99.90
8043;DHT22;4064;48.132;11.366;2022-10-10T09:52:27;17.60;99.90
8043;DHT22;4064;48.132;11.366;2022-10-10T09:57:46;18.00;99.90
8043;DHT22;4064;48.132;11.366;2022-10-10T10:02:48;18.30;99.90
8043;DHT22;4064;48.132;11.366;2022-10-10T10:05:27;18.40;99.90
8043;DHT22;4064;48.132;11.366;2022-10-10T10:07:53;18.70;99.90
8043;DHT22;4064;48.132;11.366;2022-10-10T10:10:21;18.90;99.90
8043;DHT22;4064;48.132;11.366;2022-10-10T10:12:48;19.10;99.90
8043;DHT22;4064;48.132;11.366;2022-10-10T10:15:25;19.20;99.90
8043;DHT22;4064;48.132;11.366;2022-10-10T10:18:28;19.40;99.90
8043;DHT22;4064;48.132;11.366;2022-10-10T10:23:39;19.40;99.90
8043;DHT22;4064;48.132;11.366;2022-10-10T10:28:42;19.50;99.90
8043;DHT22;4064;48.132;11.366;2022-10-10T10:39:47;19.30;99.90
8043;DHT22;4064;48.132;11.366;2022-10-10T10:42:49;19.20;99.90
8043;DHT22;4064;48.132;11.366;2022-10-10T10:48:22;19.10;99.90
8043;DHT22;4064;48.132;11.366;2022-10-10T10:51:01;19.10;99.90
8043;DHT22;4064;48.132;11.366;2022-10-10T10:56:49;19.10;99.90
8043;DHT22;4064;48.132;11.366;2022-10-10T11:02:01;19.20;99.90
8043;DHT22;4064;48.132;11.366;2022-10-10T11:07:16;19.40;99.90
8043;DHT22;4064;48.132;11.366;2022-10-10T11:15:23;19.70;99.90
8043;DHT22;4064;48.132;11.366;2022-10-10T11:18:15;19.60;99.90
8043;DHT22;4064;48.132;11.366;2022-10-10T11:23:19;19.60;99.90
8043;DHT22;4064;48.132;11.366;2022-10-10T11:26:00;19.60;99.90
8043;DHT22;4064;48.132;11.366;2022-10-10T11:28:38;19.70;99.90
8043;DHT22;4064;48.132;11.366;2022-10-10T11:31:11;19.80;99.90
8043;DHT22;4064;48.132;11.366;2022-10-10T11:33:56;19.80;99.90
8043;DHT22;4064;48.132;11.366;2022-10-10T11:36:26;19.80;99.90
8043;DHT22;4064;48.132;11.366;2022-10-10T11:41:34;19.80;99.90
8043;DHT22;4064;48.132;11.366;2022-10-10T11:46:35;19.90;99.90
8043;DHT22;4064;48.132;11.366;2022-10-10T11:49:29;19.90;99.90
8043;DHT22;4064;48.132;11.366;2022-10-10T11:54:46;20.00;99.90
8043;DHT22;4064;48.132;11.366;2022-10-10T12:00:14;20.10;99.90
8043;DHT22;4064;48.132;11.366;2022-10-10T12:02:44;20.20;99.90
8043;DHT22;4064;48.132;11.366;2022-10-10T12:05:21;20.20;99.90
8043;DHT22;4064;48.132;11.366;2022-10-10T12:10:38;20.30;99.90
8043;DHT22;4064;48.132;11.366;2022-10-10T12:15:53;20.40;99.90
8043;DHT22;4064;48.132;11.366;2022-10-10T12:18:29;20.30;99.90
8043;DHT22;4064;48.132;11.366;2022-10-10T12:21:26;20.40;99.90
8043;DHT22;4064;48.132;11.366;2022-10-10T12:24:03;20.40;99.90
8043;DHT22;4064;48.132;11.366;2022-10-10T12:37:32;20.00;99.90
8043;DHT22;4064;48.132;11.366;2022-10-10T12:44:59;20.00;99.90
8043;DHT22;4064;48.132;11.366;2022-10-10T12:50:02;19.90;99.90
8043;DHT22;4064;48.132;11.366;2022-10-10T12:52:30;20.00;99.90
8043;DHT22;4064;48.132;11.366;2022-10-10T12:55:07;19.90;99.90
8043;DHT22;4064;48.132;11.366;2022-10-10T12:57:42;20.00;99.90
8043;DHT22;4064;48.132;11.366;2022-10-10T13:00:17;19.90;99.90
8043;DHT22;4064;48.132;11.366;2022-10-10T13:02:45;19.90;99.90
8043;DHT22;4064;48.132;11.366;2022-10-10T13:05:20;19.90;99.90
8043;DHT22;4064;48.132;11.366;2022-10-10T13:07:48;19.90;99.90
8043;DHT22;4064;48.132;11.366;2022-10-10T13:10:22;19.80;99.90
8043;DHT22;4064;48.132;11.366;2022-10-10T13:15:27;19.80;99.90
8043;DHT22;4064;48.132;11.366;2022-10-10T13:17:53;19.70;99.90
8043;DHT22;4064;48.132;11.366;2022-10-10T13:20:48;19.70;99.90
8043;DHT22;4064;48.132;11.366;2022-10-10T13:23:14;19.70;99.90
8043;DHT22;4064;48.132;11.366;2022-10-10T13:25:44;19.80;99.90
8043;DHT22;4064;48.132;11.366;2022-10-10T13:28:18;19.70;99.90
8043;DHT22;4064;48.132;11.366;2022-10-10T13:30:45;19.60;99.90
8043;DHT22;4064;48.132;11.366;2022-10-10T13:33:17;19.60;99.90
8043;DHT22;4064;48.132;11.366;2022-10-10T13:35:44;19.60;99.90
8043;DHT22;4064;48.132;11.366;2022-10-10T13:38:12;19.50;99.90
8043;DHT22;4064;48.132;11.366;2022-10-10T13:40:40;19.40;99.90
8043;DHT22;4064;48.132;11.366;2022-10-10T13:43:15;19.40;99.90
8043;DHT22;4064;48.132;11.366;2022-10-10T13:45:46;19.40;99.90
8043;DHT22;4064;48.132;11.366;2022-10-10T13:48:24;19.40;99.90
8043;DHT22;4064;48.132;11.366;2022-10-10T13:51:10;19.30;99.90
8043;DHT22;4064;48.132;11.366;2022-10-10T13:53:45;19.30;99.90
8043;DHT22;4064;48.132;11.366;2022-10-10T13:59:05;19.30;99.90
8043;DHT22;4064;48.132;11.366;2022-10-10T14:01:45;19.40;99.90
8043;DHT22;4064;48.132;11.366;2022-10-10T14:04:33;19.40;99.90
8043;DHT22;4064;48.132;11.366;2022-10-10T14:07:24;19.40;99.90
8043;DHT22;4064;48.132;11.366;2022-10-10T14:10:00;19.40;99.90
8043;DHT22;4064;48.132;11.366;2022-10-10T14:12:38;19.50;99.90
8043;DHT22;4064;48.132;11.366;2022-10-10T14:20:44;19.30;99.90
8043;DHT22;4064;48.132;11.366;2022-10-10T14:23:11;19.30;99.90
8043;DHT22;4064;48.132;11.366;2022-10-10T14:25:38;19.20;99.90
8043;DHT22;4064;48.132;11.366;2022-10-10T14:28:04;19.10;99.90
8043;DHT22;4064;48.132;11.366;2022-10-10T14:30:30;19.00;99.90
8043;DHT22;4064;48.132;11.366;2022-10-10T14:32:55;19.00;99.90
8043;DHT22;4064;48.132;11.366;2022-10-10T14:35:21;18.90;99.90
8043;DHT22;4064;48.132;11.366;2022-10-10T14:37:47;18.90;99.90
8043;DHT22;4064;48.132;11.366;2022-10-10T14:40:21;18.80;99.90
8043;DHT22;4064;48.132;11.366;2022-10-10T14:42:47;18.80;99.90
8043;DHT22;4064;48.132;11.366;2022-10-10T14:45:14;18.80;99.90
8043;DHT22;4064;48.132;11.366;2022-10-10T14:47:41;18.70;99.90
8043;DHT22;4064;48.132;11.366;2022-10-10T14:50:15;18.70;99.90
8043;DHT22;4064;48.132;11.366;2022-10-10T14:52:41;18.60;99.90
8043;DHT22;4064;48.132;11.366;2022-10-10T14:55:08;18.50;99.90
8043;DHT22;4064;48.132;11.366;2022-10-10T14:57:34;18.50;99.90
8043;DHT22;4064;48.132;11.366;2022-10-10T15:00:00;18.50;99.90
8043;DHT22;4064;48.132;11.366;2022-10-10T15:02:25;18.40;99.90
8043;DHT22;4064;48.132;11.366;2022-10-10T15:04:51;18.30;99.90
8043;DHT22;4064;48.132;11.366;2022-10-10T15:07:20;18.30;99.90
8043;DHT22;4064;48.132;11.366;2022-10-10T15:09:47;18.20;99.90
8043;DHT22;4064;48.132;11.366;2022-10-10T15:12:13;18.10;99.90
8043;DHT22;4064;48.132;11.366;2022-10-10T15:14:38;18.10;99.90
8043;DHT22;4064;48.132;11.366;2022-10-10T15:17:04;18.00;99.90
8043;DHT22;4064;48.132;11.366;2022-10-10T15:19:30;18.00;99.90
8043;DHT22;4064;48.132;11.366;2022-10-10T15:21:55;18.00;99.90
8043;DHT22;4064;48.132;11.366;2022-10-10T15:24:21;17.90;99.90
8043;DHT22;4064;48.132;11.366;2022-10-10T15:26:47;17.80;99.90
8043;DHT22;4064;48.132;11.366;2022-10-10T15:29:12;17.80;99.90
8043;DHT22;4064;48.132;11.366;2022-10-10T15:31:38;17.70;99.90
8043;DHT22;4064;48.132;11.366;2022-10-10T15:34:04;17.70;99.90
8043;DHT22;4064;48.132;11.366;2022-10-10T15:36:30;17.60;99.90
8043;DHT22;4064;48.132;11.366;2022-10-10T15:38:57;17.50;99.90
8043;DHT22;4064;48.132;11.366;2022-10-10T15:41:23;17.50;99.90
8043;DHT22;4064;48.132;11.366;2022-10-10T15:43:51;17.40;99.90
8043;DHT22;4064;48.132;11.366;2022-10-10T15:46:26;17.30;99.90
8043;DHT22;4064;48.132;11.366;2022-10-10T15:48:52;17.30;99.90
8043;DHT22;4064;48.132;11.366;2022-10-10T15:51:18;17.20;99.90
8043;DHT22;4064;48.132;11.366;2022-10-10T15:53:45;17.20;99.90
8043;DHT22;4064;48.132;11.366;2022-10-10T15:56:13;17.10;99.90
8043;DHT22;4064;48.132;11.366;2022-10-10T15:58:39;17.00;99.90
8043;DHT22;4064;48.132;11.366;2022-10-10T16:01:13;17.00;99.90
8043;DHT22;4064;48.132;11.366;2022-10-10T16:03:43;16.90;99.90
8043;DHT22;4064;48.132;11.366;2022-10-10T16:06:09;16.80;99.90
8043;DHT22;4064;48.132;11.366;2022-10-10T16:08:36;16.80;99.90
8043;DHT22;4064;48.132;11.366;2022-10-10T16:11:07;16.70;99.90
8043;DHT22;4064;48.132;11.366;2022-10-10T16:13:34;16.70;99.90
8043;DHT22;4064;48.132;11.366;2022-10-10T16:16:02;16.70;99.90
8043;DHT22;4064;48.132;11.366;2022-10-10T16:18:34;16.70;99.90
8043;DHT22;4064;48.132;11.366;2022-10-10T16:21:03;16.60;99.90
8043;DHT22;4064;48.132;11.366;2022-10-10T16:23:30;16.60;99.90
8043;DHT22;4064;48.132;11.366;2022-10-10T16:26:04;16.50;99.90
8043;DHT22;4064;48.132;11.366;2022-10-10T16:28:30;16.50;99.90
8043;DHT22;4064;48.132;11.366;2022-10-10T16:30:56;16.40;99.90
8043;DHT22;4064;48.132;11.366;2022-10-10T16:33:22;16.30;99.90
8043;DHT22;4064;48.132;11.366;2022-10-10T16:35:48;16.30;99.90
8043;DHT22;4064;48.132;11.366;2022-10-10T16:38:14;16.20;99.90
8043;DHT22;4064;48.132;11.366;2022-10-10T16:40:39;16.20;99.90
8043;DHT22;4064;48.132;11.366;2022-10-10T16:43:05;16.10;99.90
8043;DHT22;4064;48.132;11.366;2022-10-10T16:45:31;16.10;99.90
8043;DHT22;4064;48.132;11.366;2022-10-10T16:47:57;16.10;99.90
8043;DHT22;4064;48.132;11.366;2022-10-10T16:50:22;16.00;99.90
8043;DHT22;4064;48.132;11.366;2022-10-10T16:52:48;16.00;99.90
8043;DHT22;4064;48.132;11.366;2022-10-10T16:55:14;15.90;99.90
8043;DHT22;4064;48.132;11.366;2022-10-10T16:57:40;15.90;99.90
8043;DHT22;4064;48.132;11.366;2022-10-10T17:00:07;15.90;99.90
8043;DHT22;4064;48.132;11.366;2022-10-10T17:02:33;15.90;99.90
8043;DHT22;4064;48.132;11.366;2022-10-10T17:04:59;15.80;99.90
8043;DHT22;4064;48.132;11.366;2022-10-10T17:07:25;15.80;99.90
8043;DHT22;4064;48.132;11.366;2022-10-10T17:09:51;15.70;99.90
8043;DHT22;4064;48.132;11.366;2022-10-10T17:12:18;15.70;99.90
8043;DHT22;4064;48.132;11.366;2022-10-10T17:14:44;15.70;99.90
8043;DHT22;4064;48.132;11.366;2022-10-10T17:17:10;15.70;99.90
8043;DHT22;4064;48.132;11.366;2022-10-10T17:19:36;15.70;99.90
8043;DHT22;4064;48.132;11.366;2022-10-10T17:22:02;15.70;99.90
8043;DHT22;4064;48.132;11.366;2022-10-10T17:24:28;15.60;99.90
8043;DHT22;4064;48.132;11.366;2022-10-10T17:26:53;15.60;99.90
8043;DHT22;4064;48.132;11.366;2022-10-10T17:29:19;15.60;99.90
8043;DHT22;4064;48.132;11.366;2022-10-10T17:31:45;15.60;99.90
8043;DHT22;4064;48.132;11.366;2022-10-10T17:34:11;15.60;99.90
8043;DHT22;4064;48.132;11.366;2022-10-10T17:36:36;15.60;99.90
8043;DHT22;4064;48.132;11.366;2022-10-10T17:39:05;15.50;99.90
8043;DHT22;4064;48.132;11.366;2022-10-10T17:41:32;15.40;99.90
8043;DHT22;4064;48.132;11.366;2022-10-10T17:43:57;15.40;99.90
8043;DHT22;4064;48.132;11.366;2022-10-10T17:46:24;15.30;99.90
8043;DHT22;4064;48.132;11.366;2022-10-10T17:48:51;15.20;99.90
8043;DHT22;4064;48.132;11.366;2022-10-10T17:51:19;15.10;99.90
8043;DHT22;4064;48.132;11.366;2022-10-10T17:53:51;15.00;99.90
8043;DHT22;4064;48.132;11.366;2022-10-10T17:56:20;14.90;99.90
8043;DHT22;4064;48.132;11.366;2022-10-10T17:58:47;14.80;99.90
8043;DHT22;4064;48.132;11.366;2022-10-10T18:01:17;14.70;99.90
8043;DHT22;4064;48.132;11.366;2022-10-10T18:03:44;14.60;99.90
8043;DHT22;4064;48.132;11.366;2022-10-10T18:06:12;14.50;99.90
8043;DHT22;4064;48.132;11.366;2022-10-10T18:08:38;14.40;99.90
8043;DHT22;4064;48.132;11.366;2022-10-10T18:11:09;14.40;99.90
8043;DHT22;4064;48.132;11.366;2022-10-10T18:13:35;14.30;99.90
8043;DHT22;4064;48.132;11.366;2022-10-10T18:16:09;14.20;99.90